createdAt,value
2022-08-23T00:01:24.695Z,18.90
2022-08-23T00:03:54.202Z,18.90
2022-08-23T00:06:23.376Z,18.70
2022-08-23T00:08:52.715Z,18.80
2022-08-23T00:11:29.865Z,18.70
2022-08-23T00:13:59.838Z,18.70
2022-08-23T00:16:29.767Z,18.80
2022-08-23T00:18:57.987Z,18.70
2022-08-23T00:21:26.001Z,18.70
2022-08-23T00:23:54.007Z,18.70
2022-08-23T00:26:22.139Z,18.60
2022-08-23T00:28:50.338Z,19.00
2022-08-23T00:31:18.425Z,18.60
2022-08-23T00:33:47.682Z,18.60
2022-08-23T00:36:15.599Z,18.70
2022-08-23T00:38:43.491Z,18.60
2022-08-23T00:41:11.426Z,18.50
2022-08-23T00:44:00.346Z,18.60
2022-08-23T00:47:00.515Z,18.60
2022-08-23T00:49:30.931Z,18.60
2022-08-23T00:52:07.516Z,18.70
2022-08-23T00:54:38.874Z,18.70
2022-08-23T00:57:09.555Z,18.70
2022-08-23T00:59:37.958Z,18.60
2022-08-23T01:02:06.941Z,18.70
2022-08-23T01:04:44.458Z,18.60
2022-08-23T01:07:18.690Z,18.70
2022-08-23T01:09:48.642Z,18.70
2022-08-23T01:12:32.820Z,18.70
2022-08-23T01:15:06.905Z,18.70
2022-08-23T01:17:39.842Z,19.20
2022-08-23T01:20:13.799Z,18.70
2022-08-23T01:22:47.565Z,18.70
2022-08-23T01:25:21.606Z,18.80
2022-08-23T01:27:51.130Z,18.70
2022-08-23T01:30:22.611Z,18.80
2022-08-23T01:32:53.487Z,19.00
2022-08-23T01:37:58.041Z,18.80
2022-08-23T01:40:27.567Z,18.80
2022-08-23T01:42:55.782Z,18.80
2022-08-23T01:45:23.761Z,18.80
2022-08-23T01:47:51.691Z,18.80
2022-08-23T01:50:19.807Z,18.80
2022-08-23T01:52:47.790Z,18.80
2022-08-23T01:55:16.225Z,18.80
2022-08-23T01:57:48.413Z,18.80
2022-08-23T02:00:18.743Z,18.80
2022-08-23T02:02:46.971Z,18.80
2022-08-23T02:05:18.803Z,18.90
2022-08-23T02:07:47.470Z,18.80
2022-08-23T02:10:16.159Z,18.90
2022-08-23T02:12:46.663Z,18.90
2022-08-23T02:15:16.055Z,18.90
2022-08-23T02:17:46.330Z,18.90
2022-08-23T02:20:14.841Z,19.00
2022-08-23T02:22:43.126Z,19.00
2022-08-23T02:25:11.408Z,18.90
2022-08-23T02:27:43.995Z,18.90
2022-08-23T02:30:14.719Z,19.00
2022-08-23T02:32:42.744Z,19.00
2022-08-23T02:35:11.837Z,19.00
2022-08-23T02:37:39.742Z,19.20
2022-08-23T02:40:09.505Z,19.10
2022-08-23T02:42:37.469Z,19.00
2022-08-23T02:45:08.350Z,19.00
2022-08-23T02:47:37.911Z,19.00
2022-08-23T02:50:06.482Z,19.10
2022-08-23T02:52:34.441Z,19.00
2022-08-23T02:55:02.388Z,19.00
2022-08-23T02:57:31.525Z,19.00
2022-08-23T02:59:59.593Z,19.00
2022-08-23T03:02:27.575Z,19.00
2022-08-23T03:04:56.999Z,18.90
2022-08-23T03:07:25.000Z,19.00
2022-08-23T03:09:53.071Z,19.00
2022-08-23T03:12:21.129Z,19.00
2022-08-23T03:14:51.158Z,19.00
2022-08-23T03:17:21.137Z,19.00
2022-08-23T03:19:49.256Z,19.10
2022-08-23T03:22:18.529Z,19.00
2022-08-23T03:24:46.714Z,19.00
2022-08-23T03:27:14.639Z,19.00
2022-08-23T03:29:42.699Z,19.00
2022-08-23T03:32:10.618Z,18.90
2022-08-23T03:34:38.515Z,19.00
2022-08-23T03:37:06.413Z,19.00
2022-08-23T03:39:35.738Z,19.00
2022-08-23T03:42:04.111Z,19.00
2022-08-23T03:44:32.025Z,18.90
2022-08-23T03:47:00.100Z,18.90
2022-08-23T03:49:28.177Z,18.90
2022-08-23T03:51:56.107Z,18.90
2022-08-23T03:54:24.135Z,18.80
2022-08-23T03:56:56.078Z,18.80
2022-08-23T03:59:24.031Z,18.80
2022-08-23T04:01:51.974Z,18.70
2022-08-23T04:04:19.948Z,18.80
2022-08-23T04:06:47.953Z,18.70
2022-08-23T04:09:16.520Z,18.70
2022-08-23T04:11:45.167Z,18.60
2022-08-23T04:14:14.538Z,18.60
2022-08-23T04:16:43.137Z,18.60
2022-08-23T04:19:14.101Z,18.60
2022-08-23T04:21:45.341Z,18.40
2022-08-23T04:24:13.952Z,18.50
2022-08-23T04:26:41.936Z,18.50
2022-08-23T04:29:23.018Z,18.50
2022-08-23T04:32:05.644Z,18.40
2022-08-23T04:34:36.314Z,18.40
2022-08-23T04:37:04.390Z,18.40
2022-08-23T04:39:58.659Z,18.30
2022-08-23T04:42:26.057Z,18.40
2022-08-23T04:44:54.146Z,18.30
2022-08-23T04:47:23.699Z,18.20
2022-08-23T04:49:51.594Z,18.30
2022-08-23T04:52:19.855Z,18.30
2022-08-23T04:54:47.890Z,18.30
2022-08-23T04:57:16.448Z,18.20
2022-08-23T04:59:44.402Z,18.20
2022-08-23T05:02:12.551Z,18.20
2022-08-23T05:04:42.360Z,18.20
2022-08-23T05:07:10.815Z,18.20
2022-08-23T05:09:38.799Z,18.10
2022-08-23T05:12:07.058Z,18.10
2022-08-23T05:14:34.994Z,18.10
2022-08-23T05:17:03.434Z,18.10
2022-08-23T05:19:32.502Z,18.10
2022-08-23T05:22:01.781Z,18.10
2022-08-23T05:24:29.694Z,18.00
2022-08-23T05:26:57.614Z,18.10
2022-08-23T05:29:25.913Z,18.10
2022-08-23T05:31:57.076Z,18.10
2022-08-23T05:34:25.574Z,18.10
2022-08-23T05:36:55.844Z,18.00
2022-08-23T05:39:36.111Z,18.10
2022-08-23T05:42:04.917Z,18.10
2022-08-23T05:44:36.714Z,18.10
2022-08-23T05:47:10.188Z,18.10
2022-08-23T05:49:39.398Z,18.20
2022-08-23T05:52:09.310Z,18.20
2022-08-23T05:54:39.048Z,18.20
2022-08-23T05:57:07.539Z,18.20
2022-08-23T05:59:35.827Z,18.30
2022-08-23T06:02:03.722Z,18.30
2022-08-23T06:04:31.875Z,18.40
2022-08-23T06:06:59.833Z,18.50
2022-08-23T06:09:28.057Z,18.50
2022-08-23T06:11:58.712Z,18.50
2022-08-23T06:14:26.922Z,18.70
2022-08-23T06:16:56.263Z,18.80
2022-08-23T06:19:25.217Z,18.90
2022-08-23T06:21:53.819Z,19.00
2022-08-23T06:24:21.899Z,19.10
2022-08-23T06:26:49.830Z,19.30
2022-08-23T06:29:21.150Z,19.40
2022-08-23T06:31:51.493Z,19.40
2022-08-23T06:34:21.832Z,19.60
2022-08-23T06:36:52.404Z,19.70
2022-08-23T06:39:22.621Z,19.90
2022-08-23T06:41:50.987Z,19.90
2022-08-23T06:44:21.427Z,20.10
2022-08-23T06:46:49.461Z,20.20
2022-08-23T06:49:17.921Z,20.40
2022-08-23T06:51:49.117Z,20.50
2022-08-23T06:54:20.311Z,20.60
2022-08-23T06:56:49.386Z,20.60
2022-08-23T06:59:18.731Z,20.70
2022-08-23T07:01:52.101Z,20.80
2022-08-23T07:04:22.794Z,20.90
2022-08-23T07:06:51.074Z,21.00
2022-08-23T07:09:19.652Z,21.10
2022-08-23T07:11:47.867Z,21.20
2022-08-23T07:14:20.267Z,21.30
2022-08-23T07:16:51.383Z,21.60
2022-08-23T07:19:21.250Z,21.70
2022-08-23T07:21:50.198Z,21.70
2022-08-23T07:24:19.002Z,21.70
2022-08-23T07:26:48.476Z,22.10
2022-08-23T07:29:17.474Z,21.90
2022-08-23T07:31:50.487Z,21.90
2022-08-23T07:34:18.729Z,22.00
2022-08-23T07:36:48.203Z,22.00
2022-08-23T07:39:17.535Z,22.10
2022-08-23T07:41:46.836Z,22.30
2022-08-23T07:44:17.420Z,22.40
2022-08-23T07:46:47.254Z,22.40
2022-08-23T07:49:16.821Z,22.50
2022-08-23T07:51:48.936Z,22.40
2022-08-23T07:54:18.153Z,22.50
2022-08-23T07:56:46.402Z,22.60
2022-08-23T07:59:14.379Z,22.80
2022-08-23T08:01:44.960Z,22.60
2022-08-23T08:04:12.946Z,22.60
2022-08-23T08:06:46.106Z,22.70
2022-08-23T08:09:15.357Z,22.80
2022-08-23T08:11:45.395Z,22.90
2022-08-23T08:14:14.006Z,23.00
2022-08-23T08:16:44.361Z,23.00
2022-08-23T08:19:15.084Z,23.10
2022-08-23T08:21:47.078Z,23.30
2022-08-23T08:24:16.882Z,23.60
2022-08-23T08:26:46.091Z,23.40
2022-08-23T08:29:14.775Z,23.50
2022-08-23T08:31:45.382Z,23.50
2022-08-23T08:34:14.165Z,23.60
2022-08-23T08:36:46.170Z,23.60
2022-08-23T08:39:15.124Z,23.70
2022-08-23T08:42:04.681Z,23.90
2022-08-23T08:44:39.435Z,23.80
2022-08-23T08:47:11.271Z,24.00
2022-08-23T08:49:45.205Z,24.00
2022-08-23T08:52:19.620Z,24.10
2022-08-23T08:54:50.218Z,24.30
2022-08-23T08:57:27.607Z,24.20
2022-08-23T09:00:01.045Z,24.20
2022-08-23T09:02:33.678Z,24.30
2022-08-23T09:05:04.775Z,24.30
2022-08-23T09:07:44.191Z,24.30
2022-08-23T09:10:29.268Z,24.30
2022-08-23T09:13:05.332Z,24.30
2022-08-23T09:15:40.679Z,24.30
2022-08-23T09:18:11.014Z,24.30
2022-08-23T09:20:39.707Z,24.30
2022-08-23T09:23:12.085Z,24.30
2022-08-23T09:25:40.295Z,24.10
2022-08-23T09:28:08.336Z,24.40
2022-08-23T09:30:49.505Z,24.40
2022-08-23T09:33:19.079Z,24.40
2022-08-23T09:36:08.562Z,24.40
2022-08-23T09:38:40.592Z,24.50
2022-08-23T09:41:20.384Z,24.60
2022-08-23T09:43:50.238Z,24.60
2022-08-23T09:46:26.713Z,24.60
2022-08-23T09:48:58.244Z,24.80
2022-08-23T09:51:30.599Z,24.90
2022-08-23T09:54:11.370Z,25.00
2022-08-23T09:56:45.041Z,25.10
2022-08-23T09:59:28.825Z,25.10
2022-08-23T10:01:59.714Z,25.10
2022-08-23T10:04:42.527Z,25.30
2022-08-23T10:07:28.963Z,25.30
2022-08-23T10:10:20.186Z,25.40
2022-08-23T10:12:48.461Z,25.50
2022-08-23T10:15:18.213Z,25.60
2022-08-23T10:17:55.544Z,25.60
2022-08-23T10:20:32.624Z,25.70
2022-08-23T10:23:12.623Z,25.90
2022-08-23T10:25:46.343Z,25.90
2022-08-23T10:28:40.221Z,26.00
2022-08-23T10:31:15.731Z,26.00
2022-08-23T10:33:51.586Z,25.90
2022-08-23T10:36:25.525Z,26.00
2022-08-23T10:38:57.866Z,26.10
2022-08-23T10:41:48.250Z,26.20
2022-08-23T10:44:26.533Z,26.20
2022-08-23T10:47:05.798Z,26.10
2022-08-23T10:49:37.106Z,26.40
2022-08-23T10:52:08.855Z,26.50
2022-08-23T10:54:47.149Z,26.50
2022-08-23T10:57:20.729Z,26.50
2022-08-23T10:59:51.744Z,26.50
2022-08-23T11:02:28.060Z,26.40
2022-08-23T11:05:02.647Z,26.40
2022-08-23T11:07:34.203Z,26.50
2022-08-23T11:10:17.287Z,26.60
2022-08-23T11:12:58.360Z,26.80
2022-08-23T11:15:44.601Z,26.90
2022-08-23T11:18:39.121Z,27.10
2022-08-23T11:21:10.982Z,27.10
2022-08-23T11:24:19.024Z,27.40
2022-08-23T11:27:07.966Z,27.60
2022-08-23T11:29:41.366Z,27.70
2022-08-23T11:32:34.370Z,27.80
2022-08-23T11:35:30.533Z,27.80
2022-08-23T11:38:04.883Z,27.90
2022-08-23T11:40:58.794Z,28.00
2022-08-23T11:43:36.206Z,28.20
2022-08-23T11:46:32.851Z,28.10
2022-08-23T11:49:22.515Z,28.40
2022-08-23T11:52:01.655Z,28.40
2022-08-23T11:54:48.274Z,28.30
2022-08-23T11:57:24.619Z,28.20
2022-08-23T12:00:10.857Z,28.20
2022-08-23T12:03:02.276Z,28.30
2022-08-23T12:05:56.974Z,28.50
2022-08-23T12:08:34.666Z,28.70
2022-08-23T12:11:07.005Z,28.50
2022-08-23T12:13:49.706Z,28.50
2022-08-23T12:16:50.103Z,28.70
2022-08-23T12:19:35.814Z,28.60
2022-08-23T12:22:11.646Z,28.50
2022-08-23T12:24:46.798Z,28.40
2022-08-23T12:27:31.668Z,28.40
2022-08-23T12:30:08.733Z,27.80
2022-08-23T12:32:45.257Z,27.70
2022-08-23T12:35:31.899Z,27.80
2022-08-23T12:38:07.285Z,27.90
2022-08-23T12:40:42.104Z,28.00
2022-08-23T12:43:20.847Z,27.80
2022-08-23T12:45:53.289Z,27.50
2022-08-23T12:48:24.362Z,27.80
2022-08-23T12:50:58.296Z,28.10
2022-08-23T12:53:33.071Z,28.40
2022-08-23T12:56:03.701Z,28.70
2022-08-23T12:58:34.829Z,28.90
2022-08-23T13:01:06.082Z,29.30
2022-08-23T13:03:38.862Z,29.60
2022-08-23T13:06:11.186Z,29.30
2022-08-23T13:08:43.818Z,29.60
2022-08-23T13:11:12.734Z,29.80
2022-08-23T13:13:42.770Z,30.00
2022-08-23T13:16:30.534Z,30.10
2022-08-23T13:19:16.855Z,30.40
2022-08-23T13:21:46.644Z,30.50
2022-08-23T13:24:38.586Z,30.70
2022-08-23T13:27:20.954Z,30.50
2022-08-23T13:29:56.662Z,30.60
2022-08-23T13:32:36.433Z,30.80
2022-08-23T13:35:31.212Z,31.00
2022-08-23T13:38:09.650Z,31.30
2022-08-23T13:40:42.524Z,31.40
2022-08-23T13:43:13.734Z,31.50
2022-08-23T13:45:48.474Z,31.70
2022-08-23T13:48:21.133Z,31.70
2022-08-23T13:50:50.351Z,31.60
2022-08-23T13:53:20.682Z,31.90
2022-08-23T13:55:51.927Z,31.90
2022-08-23T13:58:28.988Z,31.60
2022-08-23T14:00:59.024Z,31.80
2022-08-23T14:03:28.125Z,31.90
2022-08-23T14:05:56.411Z,32.00
2022-08-23T14:08:25.913Z,32.10
2022-08-23T14:10:53.921Z,32.30
2022-08-23T14:13:28.507Z,32.40
2022-08-23T14:21:36.708Z,32.50
2022-08-23T14:24:06.627Z,32.80
2022-08-23T14:26:34.726Z,33.10
2022-08-23T14:29:02.789Z,32.90
2022-08-23T14:31:31.076Z,33.00
2022-08-23T14:34:02.011Z,32.70
2022-08-23T14:36:30.458Z,32.10
2022-08-23T14:38:58.391Z,32.20
2022-08-23T14:41:29.613Z,32.30
2022-08-23T14:43:57.602Z,32.50
2022-08-23T14:46:25.691Z,33.00
2022-08-23T14:48:53.660Z,32.50
2022-08-23T14:51:26.716Z,32.70
2022-08-23T14:53:54.886Z,32.70
2022-08-23T14:56:23.526Z,32.70
2022-08-23T14:58:53.551Z,33.10
2022-08-23T15:01:21.988Z,33.40
2022-08-23T15:03:50.798Z,33.30
2022-08-23T15:06:20.680Z,33.30
2022-08-23T15:08:49.297Z,33.50
2022-08-23T15:14:06.542Z,33.50
2022-08-23T15:16:35.155Z,33.40
2022-08-23T15:19:03.229Z,33.70
2022-08-23T15:21:31.237Z,34.30
2022-08-23T15:23:59.166Z,34.50
2022-08-23T15:26:29.651Z,34.50
2022-08-23T15:28:57.753Z,34.90
2022-08-23T15:31:27.366Z,34.30
2022-08-23T15:33:55.506Z,34.30
2022-08-23T15:36:23.809Z,34.70
2022-08-23T15:38:52.225Z,34.40
2022-08-23T15:41:21.616Z,34.50
2022-08-23T15:43:49.698Z,34.70
2022-08-23T15:46:21.549Z,35.20
2022-08-23T15:48:57.002Z,35.40
2022-08-23T15:51:25.767Z,34.80
2022-08-23T15:53:54.130Z,35.30
2022-08-23T15:56:29.801Z,35.30
2022-08-23T15:58:58.327Z,35.50
2022-08-23T16:01:28.854Z,35.90
2022-08-23T16:03:58.387Z,36.20
2022-08-23T16:06:26.863Z,35.90
2022-08-23T16:08:54.873Z,35.40
2022-08-23T16:11:24.122Z,35.30
2022-08-23T16:13:53.714Z,35.60
2022-08-23T16:16:27.261Z,36.00
2022-08-23T16:18:56.954Z,35.80
2022-08-23T16:21:28.558Z,35.50
2022-08-23T16:23:57.505Z,35.70
2022-08-23T16:26:34.792Z,35.40
2022-08-23T16:29:05.549Z,34.90
2022-08-23T16:31:38.817Z,34.90
2022-08-23T16:34:09.999Z,34.30
2022-08-23T16:36:40.120Z,34.00
2022-08-23T16:39:08.675Z,33.70
2022-08-23T16:41:36.673Z,33.80
2022-08-23T16:44:05.396Z,33.50
2022-08-23T16:46:33.575Z,33.00
2022-08-23T16:49:02.369Z,32.40
2022-08-23T16:51:30.385Z,32.70
2022-08-23T16:54:02.665Z,32.80
2022-08-23T16:56:31.921Z,32.90
2022-08-23T16:59:00.124Z,32.30
2022-08-23T17:01:29.582Z,32.30
2022-08-23T17:03:57.574Z,32.10
2022-08-23T17:06:25.555Z,31.90
2022-08-23T17:08:53.446Z,31.80
2022-08-23T17:11:23.040Z,31.60
2022-08-23T17:13:53.287Z,31.60
2022-08-23T17:16:22.516Z,31.40
2022-08-23T17:18:50.782Z,31.10
2022-08-23T17:21:22.145Z,31.00
2022-08-23T17:23:50.064Z,30.60
2022-08-23T17:26:18.509Z,30.50
2022-08-23T17:28:48.210Z,30.10
2022-08-23T17:31:17.609Z,30.10
2022-08-23T17:33:46.332Z,30.10
2022-08-23T17:36:24.719Z,30.00
2022-08-23T17:38:52.623Z,29.80
2022-08-23T17:41:20.551Z,29.80
2022-08-23T17:43:49.788Z,29.50
2022-08-23T17:46:17.908Z,29.40
2022-08-23T17:48:45.901Z,29.30
2022-08-23T17:51:13.917Z,28.90
2022-08-23T17:53:41.837Z,28.90
2022-08-23T17:56:11.674Z,28.50
2022-08-23T17:58:40.463Z,28.50
2022-08-23T18:01:11.008Z,28.30
2022-08-23T18:03:39.015Z,27.80
2022-08-23T18:06:16.218Z,28.20
2022-08-23T18:08:46.058Z,27.70
2022-08-23T18:11:14.318Z,27.30
2022-08-23T18:13:42.353Z,27.40
2022-08-23T18:16:14.225Z,27.40
2022-08-23T18:18:42.564Z,27.30
2022-08-23T18:21:12.010Z,27.10
2022-08-23T18:23:40.320Z,27.20
2022-08-23T18:26:30.419Z,27.10
2022-08-23T18:28:57.941Z,26.80
2022-08-23T18:31:27.537Z,26.80
2022-08-23T18:34:00.325Z,26.80
2022-08-23T18:36:30.153Z,26.70
2022-08-23T18:38:58.762Z,26.60
2022-08-23T18:41:26.712Z,26.50
2022-08-23T18:43:54.843Z,26.40
2022-08-23T18:46:23.295Z,26.30
2022-08-23T18:48:53.675Z,26.10
2022-08-23T18:51:23.721Z,25.90
2022-08-23T18:53:51.811Z,25.80
2022-08-23T18:56:19.833Z,25.80
2022-08-23T18:58:49.062Z,25.60
2022-08-23T19:01:25.420Z,25.50
2022-08-23T19:03:55.990Z,25.40
2022-08-23T19:06:24.275Z,25.30
2022-08-23T19:08:53.000Z,25.20
2022-08-23T19:11:22.207Z,25.20
2022-08-23T19:13:51.092Z,25.10
2022-08-23T19:16:20.240Z,24.90
2022-08-23T19:18:51.536Z,24.90
2022-08-23T19:21:23.142Z,24.80
2022-08-23T19:23:53.027Z,24.70
2022-08-23T19:26:25.686Z,24.60
2022-08-23T19:28:53.731Z,24.60
2022-08-23T19:31:21.680Z,24.40
2022-08-23T19:33:50.949Z,24.40
2022-08-23T19:36:44.813Z,24.30
2022-08-23T19:39:08.877Z,24.20
2022-08-23T19:41:37.043Z,24.00
2022-08-23T19:44:05.524Z,24.00
2022-08-23T19:46:33.473Z,23.90
2022-08-23T19:49:01.781Z,23.80
2022-08-23T19:51:37.069Z,23.80
2022-08-23T19:54:11.649Z,23.70
2022-08-23T19:56:42.459Z,23.60
2022-08-23T19:59:13.732Z,23.50
2022-08-23T20:01:42.033Z,23.50
2022-08-23T20:04:10.971Z,23.40
2022-08-23T20:06:40.773Z,23.30
2022-08-23T20:09:09.361Z,23.30
2022-08-23T20:11:37.363Z,23.20
2022-08-23T20:14:07.659Z,23.10
2022-08-23T20:16:36.307Z,23.10
2022-08-23T20:19:06.846Z,22.90
2022-08-23T20:21:34.916Z,22.90
2022-08-23T20:24:04.367Z,22.90
2022-08-23T20:26:35.414Z,22.80
2022-08-23T20:29:05.222Z,22.70
2022-08-23T20:31:36.389Z,22.60
2022-08-23T20:34:06.167Z,22.60
2022-08-23T20:36:34.186Z,22.40
2022-08-23T20:39:04.531Z,22.50
2022-08-23T20:41:34.560Z,22.40
2022-08-23T20:44:03.432Z,22.40
2022-08-23T20:46:31.496Z,22.40
2022-08-23T20:48:59.761Z,22.30
2022-08-23T20:51:28.520Z,22.20
2022-08-23T20:53:57.250Z,22.20
2022-08-23T20:56:28.665Z,22.10
2022-08-23T20:58:56.669Z,22.10
2022-08-23T21:01:24.954Z,22.10
2022-08-23T21:03:53.109Z,21.90
2022-08-23T21:06:23.463Z,21.90
2022-08-23T21:08:54.996Z,21.80
2022-08-23T21:11:26.011Z,21.80
2022-08-23T21:13:56.853Z,21.80
2022-08-23T21:16:25.622Z,21.70
2022-08-23T21:18:56.665Z,21.70
2022-08-23T21:21:25.287Z,21.70
2022-08-23T21:23:53.641Z,21.60
2022-08-23T21:26:23.351Z,21.60
2022-08-23T21:28:51.386Z,21.50
2022-08-23T21:31:22.532Z,21.50
2022-08-23T21:33:51.232Z,21.40
2022-08-23T21:36:20.560Z,21.40
2022-08-23T21:38:48.710Z,21.40
2022-08-23T21:41:32.131Z,21.30
2022-08-23T21:44:00.266Z,21.30
2022-08-23T21:46:29.637Z,21.30
2022-08-23T21:48:57.605Z,21.20
2022-08-23T21:51:25.542Z,21.20
2022-08-23T21:53:53.553Z,21.10
2022-08-23T21:56:21.544Z,21.10
2022-08-23T21:58:50.526Z,21.10
2022-08-23T22:01:19.656Z,21.20
2022-08-23T22:03:50.021Z,21.00
2022-08-23T22:06:20.812Z,21.00
2022-08-23T22:08:49.376Z,21.00
2022-08-23T22:11:17.569Z,21.00
2022-08-23T22:13:45.570Z,21.00
2022-08-23T22:16:13.608Z,20.90
2022-08-23T22:18:42.765Z,20.90
2022-08-23T22:21:12.889Z,20.90
2022-08-23T22:23:43.320Z,20.80
2022-08-23T22:26:13.703Z,20.90
2022-08-23T22:28:44.677Z,20.80
2022-08-23T22:31:14.334Z,20.70
2022-08-23T22:33:43.135Z,20.70
2022-08-23T22:36:16.545Z,20.70
2022-08-23T22:38:44.609Z,20.70
2022-08-23T22:41:16.287Z,20.60
2022-08-23T22:43:44.195Z,20.60
2022-08-23T22:46:12.948Z,20.60
2022-08-23T22:48:41.355Z,20.70
2022-08-23T22:51:13.070Z,20.60
2022-08-23T22:53:45.330Z,20.60
2022-08-23T22:56:13.960Z,20.50
2022-08-23T22:58:41.910Z,20.50
2022-08-23T23:01:12.939Z,20.50
2022-08-23T23:03:41.892Z,20.50
2022-08-23T23:06:10.519Z,20.50
2022-08-23T23:08:38.486Z,20.40
2022-08-23T23:11:10.063Z,20.50
2022-08-23T23:13:38.594Z,20.40
2022-08-23T23:16:08.502Z,20.30
2022-08-23T23:18:37.160Z,20.30
2022-08-23T23:21:05.153Z,20.20
2022-08-23T23:23:34.648Z,20.30
2022-08-23T23:26:03.658Z,20.30
2022-08-23T23:28:32.973Z,20.30
2022-08-23T23:31:00.886Z,20.20
2022-08-23T23:33:28.836Z,20.20
2022-08-23T23:35:56.967Z,20.30
2022-08-23T23:38:24.954Z,20.20
2022-08-23T23:40:52.991Z,20.20
2022-08-23T23:43:20.874Z,20.10
2022-08-23T23:45:50.262Z,20.10
2022-08-23T23:48:18.206Z,20.10
2022-08-23T23:50:46.734Z,20.20
2022-08-23T23:53:15.720Z,20.10
2022-08-23T23:55:44.357Z,20.10
2022-08-23T23:58:12.592Z,20.10
